Time;durP1;ratioP1;P1;durP2;ratioP2;P2;SDS_P1;SDS_P2;PMS_P1;PMS_P2;Temp;Humidity;BMP_temperature;BMP_pressure;BME280_temperature;BME280_humidity;BME280_pressure;Samples;Min_cycle;Max_cycle;Signal;HPM_P1;HPM_P2
2021/08/30 00:00:41;;;;;;;;;;;;;;;23.25;37.78;100451.41;443631;117;921814;-80
2021/08/30 00:01:44;;;;;;;;;;;;;;;23.26;37.77;100453.89;454031;116;921672;-79
2021/08/30 00:02:47;;;;;;;;;;;;;;;23.26;37.79;100450.28;454287;115;921302;-80
2021/08/30 00:03:53;;;;;;;;;;;;;;;23.26;37.92;100450.28;453159;116;921457;-81
2021/08/30 00:04:58;;;;;;;;;;;;;;;23.27;37.88;100457.47;453871;116;922009;-79
2021/08/30 00:06:01;;;;;;;;;;;;;;;23.26;37.90;100453.06;453726;115;921303;-79
2021/08/30 00:07:04;;;;;;;;;;;;;;;23.28;37.77;100450.78;454634;116;922252;-79
2021/08/30 00:08:07;;;;;;;;;;;;;;;23.28;37.71;100451.61;454086;116;921993;-79
2021/08/30 00:09:12;;;;;;;;;;;;;;;23.30;37.63;100454.11;453720;115;921425;-80
2021/08/30 00:10:15;;;;;;;;;;;;;;;23.30;37.46;100442.97;454804;116;921520;-80
2021/08/30 00:11:18;;;;;;;;;;;;;;;23.30;37.30;100445.76;461616;114;921261;-80
2021/08/30 00:12:22;;;;;;;;;;;;;;;23.32;37.36;100446.30;453609;116;921616;-81
2021/08/30 00:13:25;;;;;;;;;;;;;;;23.32;37.36;100449.08;451964;116;921569;-78
2021/08/30 00:14:29;;;;;;;;;;;;;;;23.33;37.38;100447.92;453604;117;921458;-80
2021/08/30 00:15:32;;;;;;;;;;;;;;;23.34;37.17;100449.58;452857;116;921586;-79
2021/08/30 00:16:35;;;;;;;;;;;;;;;23.34;37.30;100448.75;452214;116;921577;-79
2021/08/30 00:17:38;;;;;;;;;;;;;;;23.33;37.49;100442.36;453093;116;921599;-79
2021/08/30 00:18:42;;;;;;;;;;;;;;;23.33;37.63;100450.70;452347;117;921594;-80
2021/08/30 00:19:45;;;;;;;;;;;;;;;23.33;37.84;100447.09;452437;115;921628;-79
2021/08/30 00:20:48;;;;;;;;;;;;;;;23.32;37.23;100446.30;452591;116;921555;-80
2021/08/30 00:21:51;;;;;;;;;;;;;;;23.32;36.74;100445.47;452577;116;921405;-80
2021/08/30 00:22:55;;;;;;;;;;;;;;;23.30;36.49;100448.54;453521;116;921456;-80
2021/08/30 00:23:58;;;;;;;;;;;;;;;23.30;36.33;100454.11;453296;116;922398;-79
2021/08/30 00:25:02;;;;;;;;;;;;;;;23.30;36.31;100448.54;460036;113;921523;-79
2021/08/30 00:26:05;;;;;;;;;;;;;;;23.30;36.19;100448.54;453630;116;921647;-79
2021/08/30 00:27:08;;;;;;;;;;;;;;;23.30;35.91;100440.19;453544;116;921679;-79
2021/08/30 00:28:11;;;;;;;;;;;;;;;23.30;35.78;100451.33;451919;116;921652;-80
2021/08/30 00:29:14;;;;;;;;;;;;;;;23.30;35.90;100454.11;459641;113;921509;-79
2021/08/30 00:30:18;;;;;;;;;;;;;;;23.31;35.69;100449.37;450831;116;921515;-80
2021/08/30 00:31:22;;;;;;;;;;;;;;;23.31;35.41;100444.63;448142;115;921594;-81
2021/08/30 00:32:26;;;;;;;;;;;;;;;23.31;35.24;100443.80;453730;116;921630;-80
2021/08/30 00:33:29;;;;;;;;;;;;;;;23.30;35.00;100442.97;453662;115;921507;-79
2021/08/30 00:34:32;;;;;;;;;;;;;;;23.31;34.87;100441.85;454428;117;921468;-79
2021/08/30 00:35:35;;;;;;;;;;;;;;;23.30;34.89;100445.76;452545;116;921636;-79
2021/08/30 00:36:39;;;;;;;;;;;;;;;23.30;34.85;100440.19;452613;116;921668;-79
2021/08/30 00:37:42;;;;;;;;;;;;;;;23.31;34.73;100435.45;455078;116;921626;-80
2021/08/30 00:38:45;;;;;;;;;;;;;;;23.30;34.75;100437.41;454210;116;921599;-80
2021/08/30 00:39:49;;;;;;;;;;;;;;;23.30;34.71;100442.97;453731;116;921559;-81
2021/08/30 00:40:52;;;;;;;;;;;;;;;23.30;34.77;100442.97;454247;116;921610;-80
2021/08/30 00:41:58;;;;;;;;;;;;;;;23.29;34.75;100442.15;454732;116;921479;-80
2021/08/30 00:43:04;;;;;;;;;;;;;;;23.28;34.67;100443.27;453792;117;921638;-80
2021/08/30 00:44:07;;;;;;;;;;;;;;;23.29;34.61;100446.87;457108;114;921632;-80
2021/08/30 00:45:11;;;;;;;;;;;;;;;23.28;34.63;100442.44;452283;116;921665;-80
2021/08/30 00:46:17;;;;;;;;;;;;;;;23.27;34.67;100436.05;452452;116;921556;-80
2021/08/30 00:47:20;;;;;;;;;;;;;;;23.27;34.73;100435.22;451216;116;921574;-80
2021/08/30 00:48:24;;;;;;;;;;;;;;;23.26;34.68;100439.98;451764;116;921644;-81
2021/08/30 00:49:27;;;;;;;;;;;;;;;23.25;34.71;100438.33;449952;117;921382;-81
2021/08/30 00:50:31;;;;;;;;;;;;;;;23.25;34.65;100443.89;451223;117;921604;-81
2021/08/30 00:51:35;;;;;;;;;;;;;;;23.23;34.50;100434.17;451004;116;922086;-81
2021/08/30 00:52:38;;;;;;;;;;;;;;;23.23;34.41;100436.95;453142;116;921572;-81
2021/08/30 00:53:48;;;;;;;;;;;;;;;23.23;34.29;100445.30;453073;116;921546;-80
2021/08/30 00:54:52;;;;;;;;;;;;;;;23.22;34.24;100444.47;451579;116;921577;-80
2021/08/30 00:55:55;;;;;;;;;;;;;;;23.21;34.34;100450.36;450837;116;921539;-81
2021/08/30 00:57:00;;;;;;;;;;;;;;;23.21;34.48;100440.03;451964;116;921555;-80
2021/08/30 00:58:03;;;;;;;;;;;;;;;23.21;34.67;100442.02;452864;117;921642;-80
2021/08/30 00:59:08;;;;;;;;;;;;;;;23.21;34.99;100442.81;451165;116;921571;-80
2021/08/30 01:00:12;;;;;;;;;;;;;;;23.23;35.24;100450.87;452349;116;921587;-79
2021/08/30 01:01:15;;;;;;;;;;;;;;;23.23;35.44;100453.65;451695;116;921693;-80
2021/08/30 01:02:19;;;;;;;;;;;;;;;23.24;35.66;100452.53;451093;116;921490;-79
2021/08/30 01:03:23;;;;;;;;;;;;;;;23.24;35.69;100455.31;451483;116;921532;-80
2021/08/30 01:04:27;;;;;;;;;;;;;;;23.23;35.59;100457.27;451178;116;921665;-79
2021/08/30 01:05:30;;;;;;;;;;;;;;;23.23;35.73;100459.21;451806;116;921683;-78
2021/08/30 01:06:44;;;;;;;;;;;;;;;23.22;35.76;100458.38;451671;116;921706;-80
2021/08/30 01:07:52;;;;;;;;;;;;;;;23.23;35.70;100456.43;451800;116;921639;-78
2021/08/30 01:09:13;;;;;;;;;;;;;;;23.24;35.73;100460.87;451718;116;921607;-79
2021/08/30 01:10:18;;;;;;;;;;;;;;;23.24;35.79;100460.87;451975;116;921630;-79
2021/08/30 01:11:23;;;;;;;;;;;;;;;23.23;35.93;100462.83;449975;117;921626;-78
2021/08/30 01:12:28;;;;;;;;;;;;;;;23.23;35.84;100465.61;450942;116;921547;-79
2021/08/30 01:13:42;;;;;;;;;;;;;;;23.24;35.73;100466.44;450938;117;921526;-79
2021/08/30 01:14:50;;;;;;;;;;;;;;;23.24;35.70;100463.66;457687;114;921509;-79
2021/08/30 01:15:54;;;;;;;;;;;;;;;23.25;35.81;100465.31;451684;117;921729;-79
2021/08/30 01:16:58;;;;;;;;;;;;;;;23.24;35.83;100458.09;451590;116;921788;-79
2021/08/30 01:18:03;;;;;;;;;;;;;;;23.22;35.94;100461.16;451672;116;921516;-80
2021/08/30 01:19:08;;;;;;;;;;;;;;;23.21;36.12;100465.07;452395;116;921462;-80
2021/08/30 01:20:13;;;;;;;;;;;;;;;23.19;36.10;100464.56;449372;116;921619;-81
2021/08/30 01:21:18;;;;;;;;;;;;;;;23.18;36.01;100462.91;457021;114;921625;-79
2021/08/30 01:22:22;;;;;;;;;;;;;;;23.18;35.90;100467.64;451378;117;921565;-80
2021/08/30 01:23:27;;;;;;;;;;;;;;;23.17;35.83;100465.98;451737;116;921621;-80
2021/08/30 01:24:31;;;;;;;;;;;;;;;23.16;35.92;100472.66;451178;116;922137;-80
2021/08/30 01:25:35;;;;;;;;;;;;;;;23.15;36.03;100468.25;450282;118;921524;-80
2021/08/30 01:26:40;;;;;;;;;;;;;;;23.13;36.29;100462.16;452210;116;921480;-80
2021/08/30 01:27:44;;;;;;;;;;;;;;;23.10;35.85;100466.34;451997;116;921617;-80
2021/08/30 01:28:49;;;;;;;;;;;;;;;23.08;35.58;100454.72;451561;116;921620;-79
2021/08/30 01:29:54;;;;;;;;;;;;;;;23.05;35.46;100465.59;450351;116;922506;-80
2021/08/30 01:30:59;;;;;;;;;;;;;;;23.02;35.37;100464.27;452329;116;921563;-81
2021/08/30 01:32:20;;;;;;;;;;;;;;;23.00;35.37;100455.38;457641;114;921603;-80
2021/08/30 01:33:24;;;;;;;;;;;;;;;22.99;35.52;100456.50;451266;116;921665;-78
2021/08/30 01:34:28;;;;;;;;;;;;;;;22.97;35.75;100455.99;452706;116;921540;-77
2021/08/30 01:35:31;;;;;;;;;;;;;;;22.94;35.61;100450.19;450133;116;921607;-80
2021/08/30 01:36:35;;;;;;;;;;;;;;;22.94;35.87;100450.19;452976;115;921698;-78
2021/08/30 01:37:40;;;;;;;;;;;;;;;22.90;35.99;100449.97;454656;115;921629;-79
2021/08/30 01:38:45;;;;;;;;;;;;;;;22.91;36.02;100456.36;454063;116;921472;-78
2021/08/30 01:39:49;;;;;;;;;;;;;;;22.88;36.20;100452.21;454592;115;921567;-78
2021/08/30 01:40:52;;;;;;;;;;;;;;;22.86;36.24;100449.75;454380;115;921578;-79
2021/08/30 01:41:56;;;;;;;;;;;;;;;22.85;36.33;100453.66;453597;115;921589;-79
2021/08/30 01:43:00;;;;;;;;;;;;;;;22.84;36.47;100462.28;455208;115;921576;-80
2021/08/30 01:44:04;;;;;;;;;;;;;;;22.82;36.42;100451.45;453092;115;921510;-80
2021/08/30 01:45:08;;;;;;;;;;;;;;;22.80;36.38;100456.51;452600;115;922015;-79
2021/08/30 01:46:13;;;;;;;;;;;;;;;22.80;36.27;100455.67;453545;115;921588;-79
2021/08/30 01:47:17;;;;;;;;;;;;;;;22.79;36.33;100460.41;454882;115;921566;-79
2021/08/30 01:48:22;;;;;;;;;;;;;;;22.78;36.14;100453.19;453344;115;921701;-79
2021/08/30 01:49:26;;;;;;;;;;;;;;;22.78;36.29;100453.19;454542;115;921645;-79
2021/08/30 01:50:30;;;;;;;;;;;;;;;22.77;36.44;100451.52;453757;115;921518;-78
2021/08/30 01:51:33;;;;;;;;;;;;;;;22.77;36.19;100462.64;453452;117;921842;-79
2021/08/30 01:52:38;;;;;;;;;;;;;;;22.76;36.55;100457.41;452720;115;921501;-79
2021/08/30 01:53:41;;;;;;;;;;;;;;;22.76;36.36;100454.63;453891;115;922188;-78
2021/08/30 01:54:45;;;;;;;;;;;;;;;22.74;36.11;100457.70;460081;113;921627;-80
2021/08/30 01:55:52;;;;;;;;;;;;;;;22.72;35.99;100454.37;451840;117;921546;-79
2021/08/30 01:56:56;;;;;;;;;;;;;;;22.72;36.01;100454.37;453298;117;921601;-79
2021/08/30 02:00:51;;;;;;;;;;;;;;;22.70;35.84;100456.62;452628;116;921724;-80
2021/08/30 02:01:54;;;;;;;;;;;;;;;22.70;35.75;100456.62;452584;116;921694;-79
2021/08/30 02:02:58;;;;;;;;;;;;;;;22.68;35.69;100452.47;453664;117;921556;-79
2021/08/30 02:04:02;;;;;;;;;;;;;;;22.67;35.77;100448.86;453125;116;921640;-79
2021/08/30 02:05:05;;;;;;;;;;;;;;;22.66;35.76;100463.08;452270;116;921604;-80
2021/08/30 02:06:09;;;;;;;;;;;;;;;22.66;35.72;100465.85;453751;116;921598;-79
2021/08/30 02:07:12;;;;;;;;;;;;;;;22.65;35.76;100465.02;451370;116;921645;-80
2021/08/30 02:08:15;;;;;;;;;;;;;;;22.64;35.71;100451.41;451512;115;921723;-78
2021/08/30 02:09:18;;;;;;;;;;;;;;;22.62;35.71;100453.66;451920;116;921812;-79
2021/08/30 02:10:24;;;;;;;;;;;;;;;22.62;35.63;100461.98;453441;117;921728;-81
2021/08/30 02:11:35;;;;;;;;;;;;;;;22.60;35.68;100451.20;452669;116;921627;-79
2021/08/30 02:12:40;;;;;;;;;;;;;;;22.59;35.59;100460.66;452552;116;921667;-79
2021/08/30 02:13:43;;;;;;;;;;;;;;;22.58;35.56;100461.77;452763;116;921651;-80
2021/08/30 02:14:46;;;;;;;;;;;;;;;22.58;35.62;100463.72;460347;113;921521;-78
2021/08/30 02:15:49;;;;;;;;;;;;;;;22.55;35.67;100462.34;456701;115;921542;-79
2021/08/30 02:16:54;;;;;;;;;;;;;;;22.54;35.70;100457.11;451776;115;922003;-79
2021/08/30 02:17:59;;;;;;;;;;;;;;;22.53;35.69;100461.84;454795;115;921636;-79
2021/08/30 02:19:04;;;;;;;;;;;;;;;22.52;35.76;100456.56;460231;113;921505;-78
2021/08/30 02:20:09;;;;;;;;;;;;;;;22.51;35.97;100452.12;458384;114;921559;-78
2021/08/30 02:21:23;;;;;;;;;;;;;;;22.48;36.17;100456.34;460509;113;921562;-79
2021/08/30 02:22:31;;;;;;;;;;;;;;;22.48;36.32;100461.07;451594;117;921597;-78
2021/08/30 02:23:36;;;;;;;;;;;;;;;22.47;36.51;100454.69;456905;114;921656;-77
2021/08/30 02:24:43;;;;;;;;;;;;;;;22.47;36.65;100457.46;457844;114;921387;-78
2021/08/30 02:25:48;;;;;;;;;;;;;;;22.48;36.45;100461.07;457363;116;921643;-79
2021/08/30 02:26:53;;;;;;;;;;;;;;;22.46;36.53;100464.97;457571;114;921665;-79
2021/08/30 02:27:58;;;;;;;;;;;;;;;22.47;36.84;100460.24;457740;115;921511;-78
2021/08/30 02:29:02;;;;;;;;;;;;;;;22.47;37.15;100465.80;458088;114;921507;-79
2021/08/30 02:30:07;;;;;;;;;;;;;;;22.47;37.18;100465.80;458238;116;921481;-78
2021/08/30 02:31:10;;;;;;;;;;;;;;;22.46;36.90;100453.02;458244;114;921552;-78
2021/08/30 02:32:14;;;;;;;;;;;;;;;22.45;36.58;100463.31;459495;113;921507;-79
2021/08/30 02:33:18;;;;;;;;;;;;;;;22.43;36.35;100464.74;452995;116;921653;-78
2021/08/30 02:34:23;;;;;;;;;;;;;;;22.41;36.22;100462.25;453680;116;921581;-77
2021/08/30 02:35:30;;;;;;;;;;;;;;;22.40;36.09;100471.70;452802;116;921589;-78
2021/08/30 02:36:34;;;;;;;;;;;;;;;22.38;36.09;100471.16;452599;116;921446;-78
2021/08/30 02:37:39;;;;;;;;;;;;;;;22.37;36.02;100463.15;453911;117;921900;-78
2021/08/30 02:38:44;;;;;;;;;;;;;;;22.36;36.11;100469.82;453492;116;921588;-77
2021/08/30 02:39:49;;;;;;;;;;;;;;;22.34;36.14;100470.11;453237;116;921562;-79
2021/08/30 02:40:52;;;;;;;;;;;;;;;22.34;36.25;100477.61;455032;116;921520;-77
2021/08/30 02:41:56;;;;;;;;;;;;;;;22.32;36.24;100477.93;454587;116;921590;-78
2021/08/30 02:43:01;;;;;;;;;;;;;;;22.31;36.26;100475.44;453078;116;921580;-78
2021/08/30 02:44:04;;;;;;;;;;;;;;;22.31;36.09;100478.22;454215;116;921645;-78
2021/08/30 02:45:08;;;;;;;;;;;;;;;22.30;36.05;100473.78;448846;116;921522;-78
2021/08/30 02:46:11;;;;;;;;;;;;;;;22.29;36.04;100472.95;448310;117;921580;-78
2021/08/30 02:47:15;;;;;;;;;;;;;;;22.29;36.04;100474.89;447764;117;921567;-76
2021/08/30 02:48:18;;;;;;;;;;;;;;;22.29;36.02;100477.67;448338;117;921693;-78
2021/08/30 02:49:22;;;;;;;;;;;;;;;22.28;36.09;100478.78;448280;117;921808;-79
2021/08/30 02:50:27;;;;;;;;;;;;;;;22.28;35.92;100476.01;447540;117;921675;-79
2021/08/30 02:51:31;;;;;;;;;;;;;;;22.28;35.85;100478.78;446959;117;921615;-80
2021/08/30 02:52:35;;;;;;;;;;;;;;;22.26;35.74;100481.88;448345;117;921630;-78
2021/08/30 02:53:38;;;;;;;;;;;;;;;22.26;35.78;100479.11;447813;117;921508;-78
2021/08/30 02:54:43;;;;;;;;;;;;;;;22.27;35.91;100483.55;447322;117;921636;-79
2021/08/30 02:55:46;;;;;;;;;;;;;;;22.25;35.98;100485.78;448183;117;921617;-78
2021/08/30 02:56:49;;;;;;;;;;;;;;;22.24;35.84;100486.06;448244;117;921501;-78
2021/08/30 02:57:53;;;;;;;;;;;;;;;22.23;35.86;100485.23;447957;117;921508;-79
2021/08/30 02:58:56;;;;;;;;;;;;;;;22.23;35.76;100481.63;447620;117;921976;-78
2021/08/30 03:00:00;;;;;;;;;;;;;;;22.23;35.75;100487.18;447615;117;921540;-77
2021/08/30 03:01:05;;;;;;;;;;;;;;;22.21;35.72;100483.89;446754;117;921843;-77
2021/08/30 03:02:09;;;;;;;;;;;;;;;22.20;35.68;100487.78;446676;117;922168;-78
2021/08/30 03:03:13;;;;;;;;;;;;;;;22.19;35.68;100486.95;447432;117;921637;-78
2021/08/30 03:04:17;;;;;;;;;;;;;;;22.19;35.68;100491.67;448360;117;922133;-77
2021/08/30 03:05:21;;;;;;;;;;;;;;;22.20;35.65;100493.34;448255;117;921567;-76
2021/08/30 03:06:25;;;;;;;;;;;;;;;22.19;35.72;100498.06;457546;114;921585;-77
2021/08/30 03:07:29;;;;;;;;;;;;;;;22.19;35.69;100497.23;450747;116;921627;-78
2021/08/30 03:08:33;;;;;;;;;;;;;;;22.18;35.78;100490.84;450465;116;921774;-78
2021/08/30 03:09:36;;;;;;;;;;;;;;;22.18;35.81;100499.17;452139;116;921560;-78
2021/08/30 03:10:39;;;;;;;;;;;;;;;22.19;35.63;100500.01;451605;117;921620;-77
2021/08/30 03:11:43;;;;;;;;;;;;;;;22.18;35.62;100499.17;452030;116;921507;-77
2021/08/30 03:12:48;;;;;;;;;;;;;;;22.17;35.65;100491.96;450453;117;921880;-77
2021/08/30 03:13:53;;;;;;;;;;;;;;;22.18;35.60;100496.40;451418;116;922092;-78
2021/08/30 03:14:58;;;;;;;;;;;;;;;22.17;35.62;100496.68;451571;116;921593;-77
2021/08/30 03:16:02;;;;;;;;;;;;;;;22.16;35.65;100501.44;451805;117;921575;-78
2021/08/30 03:17:06;;;;;;;;;;;;;;;22.16;35.67;100500.61;452864;116;921514;-77
2021/08/30 03:18:11;;;;;;;;;;;;;;;22.16;35.56;100500.61;452839;116;921594;-78
2021/08/30 03:19:15;;;;;;;;;;;;;;;22.16;36.10;100495.05;452650;117;921488;-77
2021/08/30 03:20:19;;;;;;;;;;;;;;;22.16;36.26;100500.61;453045;117;921907;-77
2021/08/30 03:21:26;;;;;;;;;;;;;;;22.16;36.31;100495.05;451177;117;921561;-77
2021/08/30 03:22:30;;;;;;;;;;;;;;;22.17;36.46;100496.68;458811;114;921536;-77
2021/08/30 03:23:35;;;;;;;;;;;;;;;22.15;36.53;100497.00;450094;116;921608;-78
2021/08/30 03:24:42;;;;;;;;;;;;;;;22.17;36.41;100502.23;451813;116;921505;-78
2021/08/30 03:25:45;;;;;;;;;;;;;;;22.18;36.62;100501.13;457504;114;921554;-77
2021/08/30 03:26:49;;;;;;;;;;;;;;;22.17;36.77;100505.84;451941;116;921475;-77
2021/08/30 03:27:52;;;;;;;;;;;;;;;22.18;36.59;100509.45;452014;116;921584;-79
2021/08/30 03:28:56;;;;;;;;;;;;;;;22.18;36.26;100503.90;452751;116;921627;-76
2021/08/30 03:29:59;;;;;;;;;;;;;;;22.17;36.15;100503.06;452203;116;921403;-77
2021/08/30 03:31:03;;;;;;;;;;;;;;;22.16;36.03;100504.22;452431;116;921651;-77
2021/08/30 03:32:08;;;;;;;;;;;;;;;22.16;35.79;100508.94;451172;116;921513;-77
2021/08/30 03:33:11;;;;;;;;;;;;;;;22.16;35.71;100508.94;458032;114;921594;-78
2021/08/30 03:34:15;;;;;;;;;;;;;;;22.15;35.59;100504.50;457257;114;921502;-76
2021/08/30 03:35:20;;;;;;;;;;;;;;;22.14;35.51;100511.17;449521;116;921475;-77
2021/08/30 03:36:24;;;;;;;;;;;;;;;22.12;35.52;100505.91;451202;116;921561;-77
2021/08/30 03:37:27;;;;;;;;;;;;;;;22.12;35.54;100510.63;453462;116;921632;-79
2021/08/30 03:38:30;;;;;;;;;;;;;;;22.12;35.57;100510.63;455179;115;921641;-78
2021/08/30 03:39:34;;;;;;;;;;;;;;;22.12;35.55;100511.45;453495;115;921589;-77
2021/08/30 03:40:38;;;;;;;;;;;;;;;22.12;35.54;100513.40;454215;116;921594;-78
2021/08/30 03:41:41;;;;;;;;;;;;;;;22.11;35.53;100511.77;445891;119;921776;-77
2021/08/30 03:42:46;;;;;;;;;;;;;;;22.11;35.47;100506.22;446299;117;921640;-78
2021/08/30 03:43:51;;;;;;;;;;;;;;;22.10;35.44;100507.33;453667;115;921595;-78
2021/08/30 03:44:54;;;;;;;;;;;;;;;22.09;35.48;100511.22;453002;115;921531;-78
2021/08/30 03:45:57;;;;;;;;;;;;;;;22.08;35.48;100504.84;454105;116;921718;-77
2021/08/30 03:47:01;;;;;;;;;;;;;;;22.07;35.53;100511.50;454064;115;921480;-80
2021/08/30 03:48:05;;;;;;;;;;;;;;;22.08;35.51;100512.34;453276;115;921602;-78
2021/08/30 03:49:09;;;;;;;;;;;;;;;22.07;35.54;100513.45;453868;115;921577;-78
2021/08/30 03:50:13;;;;;;;;;;;;;;;22.07;35.67;100507.90;455073;115;921552;-78
2021/08/30 03:51:17;;;;;;;;;;;;;;;22.06;35.62;100507.06;454287;115;922538;-78
2021/08/30 03:52:21;;;;;;;;;;;;;;;22.06;35.73;100512.63;458989;115;921563;-77
2021/08/30 03:53:25;;;;;;;;;;;;;;;22.07;35.76;100507.90;453130;116;921476;-78
2021/08/30 03:54:28;;;;;;;;;;;;;;;22.06;35.67;100515.40;453282;116;921518;-78
2021/08/30 03:55:31;;;;;;;;;;;;;;;22.07;35.68;100516.23;452541;116;921594;-78
2021/08/30 03:56:35;;;;;;;;;;;;;;;22.05;35.83;100514.56;452182;116;921589;-78
2021/08/30 03:57:38;;;;;;;;;;;;;;;22.06;35.84;100515.40;451909;116;921468;-77
2021/08/30 03:58:43;;;;;;;;;;;;;;;22.06;35.78;100512.63;453803;116;921584;-77
2021/08/30 03:59:48;;;;;;;;;;;;;;;22.07;35.85;100513.45;457053;114;921518;-77
2021/08/30 04:00:53;;;;;;;;;;;;;;;22.06;35.92;100512.63;455890;115;921731;-79
2021/08/30 04:01:56;;;;;;;;;;;;;;;22.06;35.89;100520.95;456587;116;921587;-80
2021/08/30 04:03:01;;;;;;;;;;;;;;;22.05;35.86;100520.12;456435;114;921442;-79
2021/08/30 04:04:07;;;;;;;;;;;;;;;22.07;35.85;100528.17;456910;114;921671;-79
2021/08/30 04:05:16;;;;;;;;;;;;;;;22.07;35.88;100524.56;454131;114;921688;-78
2021/08/30 04:06:19;;;;;;;;;;;;;;;22.07;35.84;100528.17;457270;116;921680;-80
2021/08/30 04:07:23;;;;;;;;;;;;;;;22.08;35.84;100526.22;457344;114;921774;-77
2021/08/30 04:08:29;;;;;;;;;;;;;;;22.09;35.91;100525.11;454375;114;921622;-77
2021/08/30 04:09:32;;;;;;;;;;;;;;;22.09;36.04;100525.11;456462;114;921728;-79
2021/08/30 04:10:37;;;;;;;;;;;;;;;22.10;36.19;100527.59;455905;115;921660;-78
2021/08/30 04:11:41;;;;;;;;;;;;;;;22.11;36.12;100520.10;457065;114;921674;-79
2021/08/30 04:12:45;;;;;;;;;;;;;;;22.12;36.08;100521.73;456703;114;921559;-78
2021/08/30 04:13:48;;;;;;;;;;;;;;;22.13;36.02;100517.84;460452;114;921578;-79
2021/08/30 04:14:52;;;;;;;;;;;;;;;22.13;36.14;100515.06;454310;117;921536;-79
2021/08/30 04:15:55;;;;;;;;;;;;;;;22.13;36.15;100517.84;450798;116;921494;-79
2021/08/30 04:16:58;;;;;;;;;;;;;;;22.13;36.00;100517.84;452411;116;921653;-78
2021/08/30 04:18:02;;;;;;;;;;;;;;;22.13;35.93;100515.89;453057;117;921832;-78
2021/08/30 04:19:05;;;;;;;;;;;;;;;22.13;36.18;100515.89;452693;116;921622;-79
2021/08/30 04:20:09;;;;;;;;;;;;;;;22.14;36.36;100516.72;439831;120;921671;-76
2021/08/30 04:21:12;;;;;;;;;;;;;;;22.15;36.47;100510.05;451756;116;921831;-78
2021/08/30 04:22:16;;;;;;;;;;;;;;;22.17;36.50;100522.51;454325;116;921621;-78
2021/08/30 04:23:19;;;;;;;;;;;;;;;22.17;36.45;100522.51;452342;116;921918;-80
2021/08/30 04:24:22;;;;;;;;;;;;;;;22.19;36.41;100525.00;458999;115;921582;-76
2021/08/30 04:25:26;;;;;;;;;;;;;;;22.19;36.39;100513.89;452046;116;921720;-77
2021/08/30 04:26:29;;;;;;;;;;;;;;;22.19;36.56;100520.28;445672;117;921630;-78
2021/08/30 04:27:32;;;;;;;;;;;;;;;22.20;36.48;100524.72;452816;116;921752;-78
2021/08/30 04:28:36;;;;;;;;;;;;;;;22.22;36.42;100521.66;453108;115;921471;-78
2021/08/30 04:29:39;;;;;;;;;;;;;;;22.23;36.39;100524.12;453006;115;921581;-78
2021/08/30 04:30:42;;;;;;;;;;;;;;;22.24;36.48;100516.61;453971;116;921515;-77
2021/08/30 04:31:47;;;;;;;;;;;;;;;22.27;36.65;100524.38;453509;116;921662;-78
2021/08/30 04:32:55;;;;;;;;;;;;;;;22.28;36.65;100523.23;450046;115;921715;-77
2021/08/30 04:33:57;;;;;;;;;;;;;;;22.30;36.63;100518.22;460279;113;921522;-78
2021/08/30 04:35:01;;;;;;;;;;;;;;;22.33;36.67;100520.39;459355;113;921533;-78
2021/08/30 04:36:04;;;;;;;;;;;;;;;22.37;36.63;100529.82;459435;114;921570;-78
2021/08/30 04:37:07;;;;;;;;;;;;;;;22.39;36.54;100524.78;457959;114;921561;-79
2021/08/30 04:38:12;;;;;;;;;;;;;;;22.42;36.50;100532.55;459253;113;921790;-78
2021/08/30 04:39:15;;;;;;;;;;;;;;;22.44;36.27;100517.22;453379;117;921768;-79
2021/08/30 04:40:18;;;;;;;;;;;;;;;22.46;36.16;100523.31;452761;116;921620;-77
2021/08/30 04:41:21;;;;;;;;;;;;;;;22.48;36.20;100525.81;452093;116;921574;-77
2021/08/30 04:42:25;;;;;;;;;;;;;;;22.49;36.29;100529.42;453824;117;921552;-78
2021/08/30 04:43:28;;;;;;;;;;;;;;;22.51;36.21;100525.20;441880;119;921695;-76
2021/08/30 04:44:32;;;;;;;;;;;;;;;22.50;36.19;100517.98;442990;117;921618;-77
2021/08/30 04:45:36;;;;;;;;;;;;;;;22.52;36.16;100521.31;452423;116;921611;-78
2021/08/30 04:46:39;;;;;;;;;;;;;;;22.52;36.35;100520.48;453219;117;921702;-78
2021/08/30 04:47:42;;;;;;;;;;;;;;;22.51;36.19;100530.77;452936;116;921531;-77
2021/08/30 04:48:46;;;;;;;;;;;;;;;22.51;36.20;100522.42;452486;116;921484;-79
2021/08/30 04:49:50;;;;;;;;;;;;;;;22.50;36.39;100528.27;453426;116;921580;-77
2021/08/30 04:50:53;;;;;;;;;;;;;;;22.50;36.52;100519.94;453172;116;922161;-77
2021/08/30 04:51:56;;;;;;;;;;;;;;;22.51;36.69;100535.48;453517;116;922118;-77
2021/08/30 04:52:59;;;;;;;;;;;;;;;22.49;36.74;100521.91;451002;115;921621;-77
2021/08/30 04:54:02;;;;;;;;;;;;;;;22.50;36.72;100528.27;453187;116;921548;-78
2021/08/30 04:55:06;;;;;;;;;;;;;;;22.49;36.69;100532.20;453542;116;921597;-78
2021/08/30 04:56:09;;;;;;;;;;;;;;;22.48;36.70;100525.81;452822;115;921647;-79
2021/08/30 04:57:12;;;;;;;;;;;;;;;22.48;36.74;100516.64;452354;116;921608;-78
2021/08/30 04:58:16;;;;;;;;;;;;;;;22.48;36.91;100522.20;453289;116;921513;-77
2021/08/30 04:59:19;;;;;;;;;;;;;;;22.47;36.73;100518.59;452979;116;921611;-78
2021/08/30 05:00:22;;;;;;;;;;;;;;;22.47;36.78;100518.59;452116;116;921634;-77
2021/08/30 05:01:25;;;;;;;;;;;;;;;22.45;36.96;100518.05;451775;116;921585;-77
2021/08/30 05:02:29;;;;;;;;;;;;;;;22.44;37.00;100519.16;450953;116;921663;-77
2021/08/30 05:03:32;;;;;;;;;;;;;;;22.44;36.99;100516.38;450793;114;921739;-78
2021/08/30 05:04:36;;;;;;;;;;;;;;;22.42;37.02;100519.48;453001;116;921623;-76
2021/08/30 05:05:39;;;;;;;;;;;;;;;22.43;37.09;100517.53;453094;116;921538;-77
2021/08/30 05:06:43;;;;;;;;;;;;;;;22.43;37.09;100521.14;452917;116;921618;-78
2021/08/30 05:07:49;;;;;;;;;;;;;;;22.43;37.11;100520.31;452943;116;921640;-78
2021/08/30 05:08:52;;;;;;;;;;;;;;;22.44;37.01;100519.16;452947;116;921732;-76
2021/08/30 05:09:55;;;;;;;;;;;;;;;22.45;37.13;100520.83;454272;116;921560;-79
2021/08/30 05:10:58;;;;;;;;;;;;;;;22.45;37.21;100524.44;453340;116;921478;-77
2021/08/30 05:12:03;;;;;;;;;;;;;;;22.45;37.16;100526.38;452469;116;921582;-79
2021/08/30 05:13:07;;;;;;;;;;;;;;;22.48;37.21;100519.42;453966;116;921681;-77
2021/08/30 05:14:10;;;;;;;;;;;;;;;22.49;37.20;100518.30;453532;116;921556;-77
2021/08/30 05:15:13;;;;;;;;;;;;;;;22.51;37.37;100524.38;452738;117;922198;-78
2021/08/30 05:16:16;;;;;;;;;;;;;;;22.52;37.44;100517.70;452004;116;922027;-77
2021/08/30 05:17:22;;;;;;;;;;;;;;;22.54;37.44;100518.24;453692;116;921686;-79
2021/08/30 05:18:24;;;;;;;;;;;;;;;22.56;37.42;100515.98;453653;116;921631;-78
2021/08/30 05:19:28;;;;;;;;;;;;;;;22.57;37.41;100518.47;459549;115;922100;-79
2021/08/30 05:20:31;;;;;;;;;;;;;;;22.61;37.32;100518.70;451509;116;921628;-79
2021/08/30 05:21:34;;;;;;;;;;;;;;;22.62;37.21;100517.58;452765;116;921495;-77
2021/08/30 05:22:37;;;;;;;;;;;;;;;22.66;37.31;100521.44;451005;116;921835;-75
2021/08/30 05:23:40;;;;;;;;;;;;;;;22.69;37.37;100524.44;452057;116;921690;-77
2021/08/30 05:24:43;;;;;;;;;;;;;;;22.72;37.42;100523.88;453117;116;921618;-77
2021/08/30 05:25:47;;;;;;;;;;;;;;;22.74;37.47;100518.02;452372;116;921656;-78
2021/08/30 05:26:50;;;;;;;;;;;;;;;22.78;37.50;100521.86;451500;116;921560;-78
2021/08/30 05:27:54;;;;;;;;;;;;;;;22.81;37.33;100513.77;452167;116;921631;-78
2021/08/30 05:28:57;;;;;;;;;;;;;;;22.83;37.20;100516.23;452521;116;921585;-78